createdAt,value
2018-12-13T00:00:58.827Z,27.38
2018-12-13T00:01:58.871Z,27.48
2018-12-13T00:02:58.908Z,27.43
2018-12-13T00:03:58.943Z,27.47
2018-12-13T00:04:59.001Z,27.43
2018-12-13T00:05:59.063Z,27.47
2018-12-13T00:06:59.106Z,27.42
2018-12-13T00:07:59.152Z,27.42
2018-12-13T00:08:59.215Z,27.48
2018-12-13T00:09:59.272Z,27.39
2018-12-13T00:10:59.320Z,27.46
2018-12-13T00:11:59.341Z,27.42
2018-12-13T00:12:59.431Z,27.35
2018-12-13T00:13:59.449Z,27.36
2018-12-13T00:14:59.525Z,27.43
2018-12-13T00:15:59.570Z,27.38
2018-12-13T00:16:59.623Z,27.39
2018-12-13T00:17:59.705Z,27.38
2018-12-13T00:18:59.703Z,27.38
2018-12-13T00:19:59.755Z,27.43
2018-12-13T00:20:59.801Z,27.46
2018-12-13T00:21:59.913Z,27.39
2018-12-13T00:22:59.928Z,27.46
2018-12-13T00:23:59.957Z,27.46
2018-12-13T00:24:59.984Z,27.41
2018-12-13T00:26:00.061Z,27.33
2018-12-13T00:27:00.101Z,27.36
2018-12-13T00:28:00.169Z,27.39
2018-12-13T00:29:00.216Z,27.32
2018-12-13T00:30:00.252Z,27.39
2018-12-13T00:31:00.325Z,27.39
2018-12-13T00:32:00.365Z,27.29
2018-12-13T00:33:00.406Z,27.26
2018-12-13T00:34:00.462Z,27.31
2018-12-13T00:35:00.518Z,27.35
2018-12-13T00:36:00.588Z,27.33
2018-12-13T00:37:00.579Z,27.28
2018-12-13T00:38:00.660Z,27.29
2018-12-13T00:39:00.706Z,27.24
2018-12-13T00:40:00.787Z,27.29
2018-12-13T00:41:00.792Z,27.28
2018-12-13T00:42:00.860Z,27.36
2018-12-13T00:43:00.954Z,27.38
2018-12-13T00:44:00.951Z,27.36
2018-12-13T00:45:01.019Z,27.39
2018-12-13T00:46:01.057Z,27.41
2018-12-13T00:47:01.092Z,27.20
2018-12-13T00:48:01.175Z,27.38
2018-12-13T00:49:01.265Z,27.32
2018-12-13T00:50:01.244Z,27.26
2018-12-13T00:51:01.309Z,27.23
2018-12-13T00:52:01.341Z,27.11
2018-12-13T00:53:01.399Z,27.20
2018-12-13T00:54:01.470Z,27.19
2018-12-13T00:55:01.511Z,27.11
2018-12-13T00:56:01.567Z,27.09
2018-12-13T00:57:01.599Z,27.17
2018-12-13T00:58:01.648Z,27.17
2018-12-13T00:59:01.702Z,27.11
2018-12-13T01:00:01.757Z,27.14
2018-12-13T01:01:01.850Z,27.04
2018-12-13T01:02:01.857Z,27.06
2018-12-13T01:03:01.977Z,27.02
2018-12-13T01:04:01.962Z,26.89
2018-12-13T01:05:02.026Z,26.87
2018-12-13T01:06:02.102Z,26.87
2018-12-13T01:07:02.093Z,26.91
2018-12-13T01:08:02.164Z,26.87
2018-12-13T01:09:02.184Z,26.96
2018-12-13T01:10:02.285Z,26.98
2018-12-13T01:11:02.346Z,26.94
2018-12-13T01:12:02.323Z,26.87
2018-12-13T01:13:02.408Z,26.91
2018-12-13T01:14:02.450Z,26.86
2018-12-13T01:15:02.518Z,26.81
2018-12-13T01:16:02.591Z,26.86
2018-12-13T01:17:02.612Z,26.86
2018-12-13T01:18:02.625Z,26.83
2018-12-13T01:19:02.682Z,26.79
2018-12-13T01:20:02.743Z,26.73
2018-12-13T01:21:02.774Z,26.81
2018-12-13T01:22:02.862Z,26.73
2018-12-13T01:23:02.895Z,26.74
2018-12-13T01:24:02.937Z,26.76
2018-12-13T01:25:03.001Z,26.69
2018-12-13T01:26:03.030Z,26.69
2018-12-13T01:27:03.088Z,26.65
2018-12-13T01:28:03.133Z,26.61
2018-12-13T01:29:03.194Z,26.58
2018-12-13T01:30:03.248Z,26.36
2018-12-13T01:31:03.271Z,26.42
2018-12-13T01:32:03.330Z,26.39
2018-12-13T01:33:03.367Z,26.31
2018-12-13T01:34:03.418Z,26.29
2018-12-13T01:35:03.479Z,26.20
2018-12-13T01:36:03.533Z,26.20
2018-12-13T01:37:03.567Z,26.17
2018-12-13T01:38:03.642Z,26.17
2018-12-13T01:39:03.672Z,26.01
2018-12-13T01:40:03.720Z,26.01
2018-12-13T01:41:03.781Z,26.02
2018-12-13T01:42:03.817Z,25.93
2018-12-13T01:43:03.887Z,25.89
2018-12-13T01:44:03.930Z,25.89
2018-12-13T01:45:03.970Z,25.86
2018-12-13T01:46:04.031Z,25.79
2018-12-13T01:47:04.078Z,25.82
2018-12-13T01:48:04.117Z,25.79
2018-12-13T01:49:04.140Z,25.79
2018-12-13T01:50:04.209Z,25.80
2018-12-13T01:51:04.255Z,25.80
2018-12-13T01:52:04.314Z,25.80
2018-12-13T01:53:04.356Z,25.77
2018-12-13T01:54:04.401Z,25.75
2018-12-13T01:55:04.446Z,25.67
2018-12-13T01:56:04.517Z,25.67
2018-12-13T01:57:04.553Z,25.67
2018-12-13T01:58:04.590Z,25.64
2018-12-13T01:59:04.685Z,25.64
2018-12-13T02:00:04.709Z,25.67
2018-12-13T02:01:04.730Z,25.67
2018-12-13T02:02:04.782Z,25.64
2018-12-13T02:03:04.836Z,25.57
2018-12-13T02:04:04.896Z,25.61
2018-12-13T02:05:04.942Z,25.54
2018-12-13T02:06:04.991Z,25.61
2018-12-13T02:07:05.046Z,25.56
2018-12-13T02:08:05.096Z,25.67
2018-12-13T02:09:05.138Z,25.69
2018-12-13T02:10:05.182Z,25.64
2018-12-13T02:11:05.225Z,25.65
2018-12-13T02:12:05.279Z,25.56
2018-12-13T02:13:05.383Z,25.57
2018-12-13T02:14:05.366Z,25.62
2018-12-13T02:15:05.434Z,25.59
2018-12-13T02:16:05.485Z,25.59
2018-12-13T02:17:05.518Z,25.62
2018-12-13T02:18:05.555Z,25.59
2018-12-13T02:19:05.637Z,25.52
2018-12-13T02:20:05.664Z,25.53
2018-12-13T02:21:05.719Z,25.61
2018-12-13T02:22:05.760Z,25.53
2018-12-13T02:23:05.816Z,25.46
2018-12-13T02:24:05.873Z,25.47
2018-12-13T02:25:05.897Z,25.46
2018-12-13T02:26:05.956Z,25.44
2018-12-13T02:27:05.995Z,25.39
2018-12-13T02:28:06.037Z,25.44
2018-12-13T02:29:06.122Z,25.39
2018-12-13T02:30:06.145Z,25.38
2018-12-13T02:31:06.203Z,25.32
2018-12-13T02:32:06.238Z,25.32
2018-12-13T02:33:06.291Z,25.43
2018-12-13T02:34:06.348Z,25.31
2018-12-13T02:35:06.459Z,25.30
2018-12-13T02:36:06.482Z,25.30
2018-12-13T02:37:06.613Z,25.31
2018-12-13T02:38:06.587Z,25.22
2018-12-13T02:39:06.595Z,25.19
2018-12-13T02:40:06.621Z,25.24
2018-12-13T02:41:06.696Z,25.30
2018-12-13T02:42:06.751Z,25.27
2018-12-13T02:43:06.803Z,25.22
2018-12-13T02:44:06.821Z,25.12
2018-12-13T02:45:06.859Z,25.10
2018-12-13T02:46:06.947Z,25.13
2018-12-13T02:47:08.466Z,25.09
2018-12-13T02:48:07.003Z,25.05
2018-12-13T02:49:07.094Z,25.13
2018-12-13T02:50:07.109Z,25.13
2018-12-13T02:51:07.146Z,25.15
2018-12-13T02:52:07.197Z,25.12
2018-12-13T02:53:07.262Z,25.10
2018-12-13T02:54:07.328Z,25.06
2018-12-13T02:55:07.370Z,25.00
2018-12-13T02:56:07.391Z,25.09
2018-12-13T02:57:07.472Z,25.12
2018-12-13T02:58:07.480Z,25.06
2018-12-13T02:59:07.525Z,25.05
2018-12-13T03:00:07.601Z,25.07
2018-12-13T03:01:07.656Z,25.09
2018-12-13T03:02:07.698Z,25.05
2018-12-13T03:03:07.780Z,25.09
2018-12-13T03:04:07.789Z,25.00
2018-12-13T03:05:07.848Z,24.98
2018-12-13T03:06:07.885Z,25.05
2018-12-13T03:07:13.575Z,25.02
2018-12-13T03:08:07.981Z,25.02
2018-12-13T03:09:08.026Z,25.09
2018-12-13T03:10:08.087Z,25.06
2018-12-13T03:11:08.152Z,25.10
2018-12-13T03:12:08.163Z,25.10
2018-12-13T03:13:08.227Z,25.07
2018-12-13T03:14:08.283Z,24.97
2018-12-13T03:15:08.317Z,25.06
2018-12-13T03:16:08.351Z,25.10
2018-12-13T03:17:08.417Z,25.15
2018-12-13T03:18:08.437Z,25.10
2018-12-13T03:19:08.517Z,25.12
2018-12-13T03:20:08.558Z,25.10
2018-12-13T03:21:08.678Z,25.09
2018-12-13T03:22:08.642Z,25.05
2018-12-13T03:23:08.706Z,24.98
2018-12-13T03:24:08.763Z,25.05
2018-12-13T03:25:08.800Z,25.02
2018-12-13T03:26:08.854Z,25.02
2018-12-13T03:27:08.894Z,25.02
2018-12-13T03:28:08.947Z,25.15
2018-12-13T03:29:08.973Z,25.10
2018-12-13T03:30:09.075Z,25.05
2018-12-13T03:31:09.058Z,25.07
2018-12-13T03:32:09.131Z,24.94
2018-12-13T03:33:09.181Z,25.02
2018-12-13T03:34:09.216Z,24.97
2018-12-13T03:35:09.278Z,24.95
2018-12-13T03:36:09.325Z,24.92
2018-12-13T03:37:09.412Z,24.91
2018-12-13T03:38:09.421Z,24.92
2018-12-13T03:39:09.771Z,24.94
2018-12-13T03:40:09.502Z,24.91
2018-12-13T03:41:09.540Z,24.90
2018-12-13T03:42:09.612Z,25.00
2018-12-13T03:43:09.658Z,24.97
2018-12-13T03:44:09.715Z,24.88
2018-12-13T03:45:09.750Z,24.92
2018-12-13T03:46:09.816Z,25.00
2018-12-13T03:47:09.873Z,24.95
2018-12-13T03:48:09.903Z,24.94
2018-12-13T03:49:09.948Z,24.92
2018-12-13T03:50:09.982Z,24.97
2018-12-13T03:51:10.090Z,24.91
2018-12-13T03:52:10.114Z,24.95
2018-12-13T03:53:10.137Z,24.98
2018-12-13T03:54:10.174Z,25.00
2018-12-13T03:55:10.237Z,24.97
2018-12-13T03:56:10.320Z,24.94
2018-12-13T03:57:10.319Z,24.97
2018-12-13T03:58:10.380Z,24.94
2018-12-13T03:59:10.422Z,25.01
2018-12-13T04:00:10.481Z,24.94
2018-12-13T04:01:10.517Z,24.90
2018-12-13T04:02:10.557Z,24.95
2018-12-13T04:03:10.631Z,24.90
2018-12-13T04:04:10.668Z,24.92
2018-12-13T04:05:10.722Z,24.91
2018-12-13T04:06:10.751Z,24.92
2018-12-13T04:07:10.854Z,24.88
2018-12-13T04:08:10.862Z,24.92
2018-12-13T04:09:10.900Z,24.98
2018-12-13T04:10:10.976Z,24.91
2018-12-13T04:11:11.006Z,24.87
2018-12-13T04:12:11.027Z,24.94
2018-12-13T04:13:11.102Z,24.83
2018-12-13T04:14:11.118Z,24.95
2018-12-13T04:15:11.170Z,24.97
2018-12-13T04:16:11.252Z,24.91
2018-12-13T04:17:11.280Z,24.91
2018-12-13T04:18:11.329Z,24.87
2018-12-13T04:19:11.382Z,24.82
2018-12-13T04:20:11.439Z,24.77
2018-12-13T04:21:11.489Z,24.77
2018-12-13T04:22:11.570Z,24.80
2018-12-13T04:23:11.581Z,24.85
2018-12-13T04:24:11.626Z,24.87
2018-12-13T04:25:11.693Z,24.77
2018-12-13T04:26:11.723Z,24.77
2018-12-13T04:27:11.773Z,24.71
2018-12-13T04:28:11.833Z,24.76
2018-12-13T04:29:11.864Z,24.67
2018-12-13T04:30:11.963Z,24.71
2018-12-13T04:31:11.966Z,24.75
2018-12-13T04:32:12.009Z,24.71
2018-12-13T04:33:12.045Z,24.76
2018-12-13T04:34:12.109Z,24.73
2018-12-13T04:35:12.189Z,24.77
2018-12-13T04:36:13.482Z,24.59
2018-12-13T04:37:12.230Z,24.64
2018-12-13T04:38:12.285Z,24.60
2018-12-13T04:39:12.339Z,24.60
2018-12-13T04:40:12.406Z,24.60
2018-12-13T04:41:12.445Z,24.59
2018-12-13T04:42:12.504Z,24.50
2018-12-13T04:43:12.543Z,24.52
2018-12-13T04:44:12.580Z,24.54
2018-12-13T04:45:12.621Z,24.56
2018-12-13T04:46:12.675Z,24.54
2018-12-13T04:47:12.729Z,24.52
2018-12-13T04:48:12.771Z,24.41
2018-12-13T04:49:12.858Z,24.42
2018-12-13T04:50:12.905Z,24.39
2018-12-13T04:51:12.908Z,24.45
2018-12-13T04:52:12.970Z,24.45
2018-12-13T04:53:13.310Z,24.47
2018-12-13T04:54:13.057Z,24.45
2018-12-13T04:55:13.109Z,24.44
2018-12-13T04:56:13.199Z,24.38
2018-12-13T04:57:13.201Z,24.39
2018-12-13T04:58:13.306Z,24.37
2018-12-13T04:59:13.310Z,24.24
2018-12-13T05:00:13.364Z,24.32
2018-12-13T05:01:13.402Z,24.26
2018-12-13T05:02:13.448Z,24.31
2018-12-13T05:03:13.482Z,24.29
2018-12-13T05:04:13.541Z,24.32
2018-12-13T05:05:13.573Z,24.24
2018-12-13T05:06:13.640Z,24.22
2018-12-13T05:07:13.691Z,24.26
2018-12-13T05:08:13.739Z,24.23
2018-12-13T05:09:13.759Z,24.16
2018-12-13T05:10:13.813Z,24.14
2018-12-13T05:11:13.867Z,24.13
2018-12-13T05:12:13.944Z,24.10
2018-12-13T05:13:13.966Z,24.08
2018-12-13T05:14:14.030Z,24.00
2018-12-13T05:15:14.080Z,24.16
2018-12-13T05:16:14.119Z,24.12
2018-12-13T05:17:14.170Z,24.13
2018-12-13T05:18:14.213Z,24.07
2018-12-13T05:19:14.245Z,24.13
2018-12-13T05:20:14.284Z,24.08
2018-12-13T05:21:14.367Z,24.12
2018-12-13T05:22:14.405Z,24.02
2018-12-13T05:23:14.437Z,24.00
2018-12-13T05:24:14.492Z,24.02
2018-12-13T05:25:14.799Z,24.01
2018-12-13T05:26:14.597Z,23.92
2018-12-13T05:27:14.648Z,23.90
2018-12-13T05:28:14.698Z,24.00
2018-12-13T05:29:14.736Z,23.95
2018-12-13T05:30:14.774Z,24.00
2018-12-13T05:31:14.854Z,23.86
2018-12-13T05:32:14.866Z,23.86
2018-12-13T05:33:14.913Z,23.85
2018-12-13T05:34:14.989Z,23.85
2018-12-13T05:35:15.016Z,23.90
2018-12-13T05:36:15.095Z,23.80
2018-12-13T05:37:15.122Z,23.79
2018-12-13T05:38:15.171Z,23.83
2018-12-13T05:39:15.216Z,23.85
2018-12-13T05:40:15.273Z,23.72
2018-12-13T05:41:15.303Z,23.76
2018-12-13T05:42:15.345Z,23.76
2018-12-13T05:43:15.404Z,23.71
2018-12-13T05:44:15.464Z,23.77
2018-12-13T05:45:15.508Z,23.75
2018-12-13T05:46:15.810Z,23.68
2018-12-13T05:47:15.605Z,23.71
2018-12-13T05:48:15.652Z,23.70
2018-12-13T05:49:15.685Z,23.65
2018-12-13T05:50:15.747Z,23.65
2018-12-13T05:51:15.807Z,23.58
2018-12-13T05:52:15.818Z,23.57
2018-12-13T05:53:15.889Z,23.55
2018-12-13T05:54:15.952Z,23.52
2018-12-13T05:55:15.977Z,23.60
2018-12-13T05:56:16.037Z,23.49
2018-12-13T05:57:16.102Z,23.52
2018-12-13T05:58:16.144Z,23.53
2018-12-13T05:59:16.172Z,23.52
2018-12-13T06:00:16.222Z,23.52
2018-12-13T06:01:16.266Z,23.49
2018-12-13T06:02:16.327Z,23.49
2018-12-13T06:03:16.382Z,23.43
2018-12-13T06:04:16.416Z,23.43
2018-12-13T06:05:16.538Z,23.50
2018-12-13T06:06:16.514Z,23.49
2018-12-13T06:07:16.571Z,23.50
2018-12-13T06:08:16.606Z,23.46
2018-12-13T06:09:16.658Z,23.49
2018-12-13T06:10:16.712Z,23.55
2018-12-13T06:11:16.738Z,23.47
2018-12-13T06:12:16.804Z,23.50
2018-12-13T06:13:16.859Z,23.50
2018-12-13T06:14:16.879Z,23.57
2018-12-13T06:15:16.947Z,23.46
2018-12-13T06:16:16.983Z,23.49
2018-12-13T06:17:17.048Z,23.49
2018-12-13T06:18:17.090Z,23.47
2018-12-13T06:19:17.125Z,23.45
2018-12-13T06:20:17.185Z,23.40
2018-12-13T06:21:17.241Z,23.39
2018-12-13T06:22:17.553Z,23.39
2018-12-13T06:23:17.339Z,23.49
2018-12-13T06:24:17.395Z,23.46
2018-12-13T06:25:17.505Z,23.53
2018-12-13T06:26:17.493Z,23.55
2018-12-13T06:27:17.521Z,23.50
2018-12-13T06:28:17.564Z,23.52
2018-12-13T06:29:17.618Z,23.50
2018-12-13T06:30:17.708Z,23.46
2018-12-13T06:31:17.716Z,23.38
2018-12-13T06:32:18.006Z,23.42
2018-12-13T06:33:24.675Z,23.46
2018-12-13T06:34:17.877Z,23.50
2018-12-13T06:35:17.891Z,23.43
2018-12-13T06:36:17.982Z,23.50
2018-12-13T06:37:17.993Z,23.52
2018-12-13T06:38:18.056Z,23.47
2018-12-13T06:39:18.098Z,23.46
2018-12-13T06:40:18.146Z,23.47
2018-12-13T06:41:18.182Z,23.50
2018-12-13T06:42:18.242Z,23.43
2018-12-13T06:43:18.280Z,23.43
2018-12-13T06:44:18.318Z,23.50
2018-12-13T06:45:18.372Z,23.34
2018-12-13T06:46:18.405Z,23.38
2018-12-13T06:47:18.515Z,23.38
2018-12-13T06:48:18.511Z,23.43
2018-12-13T06:49:18.570Z,23.46
2018-12-13T06:50:18.629Z,23.39
2018-12-13T06:51:20.126Z,23.40
2018-12-13T06:52:18.913Z,23.40
2018-12-13T06:53:18.761Z,23.40
2018-12-13T06:54:18.792Z,23.46
2018-12-13T06:55:18.864Z,23.42
2018-12-13T06:56:18.915Z,23.38
2018-12-13T06:57:19.089Z,23.40
2018-12-13T06:58:19.041Z,23.32
2018-12-13T06:59:19.051Z,23.34
2018-12-13T07:00:19.084Z,23.39
2018-12-13T07:01:19.141Z,23.35
2018-12-13T07:02:19.195Z,23.31
2018-12-13T07:03:19.237Z,23.35
2018-12-13T07:04:19.325Z,23.34
2018-12-13T07:05:19.309Z,23.29
2018-12-13T07:06:19.375Z,23.23
2018-12-13T07:07:19.406Z,23.17
2018-12-13T07:08:19.460Z,23.23
2018-12-13T07:09:19.541Z,23.08
2018-12-13T07:10:19.575Z,23.09
2018-12-13T07:11:19.672Z,23.07
2018-12-13T07:12:19.657Z,23.09
2018-12-13T07:13:19.686Z,22.96
2018-12-13T07:14:19.737Z,23.02
2018-12-13T07:15:19.816Z,23.11
2018-12-13T07:16:19.840Z,23.04
2018-12-13T07:17:20.202Z,22.99
2018-12-13T07:18:19.960Z,22.99
2018-12-13T07:19:19.973Z,22.99
2018-12-13T07:20:20.060Z,23.01
2018-12-13T07:21:20.090Z,23.01
2018-12-13T07:22:20.123Z,23.11
2018-12-13T07:23:20.171Z,23.07
2018-12-13T07:24:20.214Z,23.17
2018-12-13T07:25:20.274Z,23.19
2018-12-13T07:26:20.318Z,23.15
2018-12-13T07:27:20.368Z,23.24
2018-12-13T07:28:20.398Z,23.20
2018-12-13T07:29:20.457Z,23.20
2018-12-13T07:30:20.546Z,23.12
2018-12-13T07:31:20.547Z,23.09
2018-12-13T07:32:20.608Z,23.12
2018-12-13T07:33:20.714Z,23.11
2018-12-13T07:34:20.693Z,22.97
2018-12-13T07:35:20.799Z,22.99
2018-12-13T07:36:20.807Z,23.02
2018-12-13T07:37:20.857Z,23.05
2018-12-13T07:38:20.906Z,23.05
2018-12-13T07:39:20.916Z,23.05
2018-12-13T07:40:20.975Z,23.04
2018-12-13T07:41:21.043Z,23.02
2018-12-13T07:42:21.335Z,22.99
2018-12-13T07:43:21.125Z,22.99
2018-12-13T07:44:21.182Z,23.04
2018-12-13T07:45:21.215Z,22.92
2018-12-13T07:46:21.256Z,22.97
2018-12-13T07:47:21.297Z,22.92
2018-12-13T07:48:21.356Z,22.92
2018-12-13T07:49:21.385Z,22.87
2018-12-13T07:50:21.442Z,22.84
2018-12-13T07:51:21.501Z,22.87
2018-12-13T07:52:21.593Z,22.92
2018-12-13T07:53:21.600Z,22.84
2018-12-13T07:54:21.630Z,22.89
2018-12-13T07:55:21.671Z,22.92
2018-12-13T07:56:21.742Z,22.93
2018-12-13T07:57:21.764Z,22.92
2018-12-13T07:58:21.844Z,22.87
2018-12-13T07:59:21.890Z,22.87
2018-12-13T08:00:21.912Z,22.86
2018-12-13T08:01:21.980Z,22.84
2018-12-13T08:02:22.019Z,22.84
2018-12-13T08:03:22.064Z,22.89
2018-12-13T08:04:22.127Z,22.83
2018-12-13T08:05:22.182Z,22.87
2018-12-13T08:06:22.245Z,22.87
2018-12-13T08:07:22.236Z,22.83
2018-12-13T08:08:22.295Z,22.84
2018-12-13T08:09:22.350Z,22.86
2018-12-13T08:10:22.401Z,22.90
2018-12-13T08:11:22.440Z,22.93
2018-12-13T08:12:22.474Z,23.02
2018-12-13T08:13:22.531Z,22.96
2018-12-13T08:14:22.585Z,22.90
2018-12-13T08:15:22.634Z,22.89
2018-12-13T08:16:22.677Z,22.86
2018-12-13T08:17:22.701Z,22.84
2018-12-13T08:18:22.752Z,22.83
2018-12-13T08:19:22.807Z,22.80
2018-12-13T08:20:22.865Z,22.86
2018-12-13T08:21:22.912Z,22.84
2018-12-13T08:22:22.955Z,22.80
2018-12-13T08:23:23.007Z,22.78
2018-12-13T08:24:23.087Z,22.78
2018-12-13T08:25:23.096Z,22.77
2018-12-13T08:26:23.135Z,22.78
2018-12-13T08:27:23.201Z,22.77
2018-12-13T08:28:23.227Z,22.72
2018-12-13T08:29:23.292Z,22.75
2018-12-13T08:30:23.325Z,22.82
2018-12-13T08:31:23.384Z,22.78
2018-12-13T08:32:23.428Z,22.82
2018-12-13T08:33:23.486Z,22.80
2018-12-13T08:34:23.505Z,22.75
2018-12-13T08:35:23.541Z,22.80
2018-12-13T08:36:23.622Z,22.84
2018-12-13T08:37:23.668Z,22.86
2018-12-13T08:38:27.302Z,22.90
2018-12-13T08:39:23.725Z,22.84
2018-12-13T08:40:23.803Z,22.87
2018-12-13T08:41:23.868Z,22.87
2018-12-13T08:42:23.888Z,22.89
2018-12-13T08:43:23.941Z,22.87
2018-12-13T08:44:23.996Z,22.97
2018-12-13T08:45:24.427Z,22.97
2018-12-13T08:46:24.095Z,22.96
2018-12-13T08:47:24.119Z,23.04
2018-12-13T08:48:24.222Z,22.96
2018-12-13T08:49:24.201Z,23.11
2018-12-13T08:50:24.269Z,23.12
2018-12-13T08:51:24.327Z,23.19
2018-12-13T08:52:24.346Z,23.17
2018-12-13T08:53:24.411Z,23.19
2018-12-13T08:54:24.458Z,23.26
2018-12-13T08:55:24.485Z,23.23
2018-12-13T08:56:24.545Z,23.31
2018-12-13T08:57:24.581Z,23.29
2018-12-13T08:58:24.631Z,23.23
2018-12-13T08:59:24.683Z,23.34
2018-12-13T09:00:24.730Z,23.45
2018-12-13T09:01:24.792Z,23.50
2018-12-13T09:02:24.831Z,23.39
2018-12-13T09:03:24.888Z,23.49
2018-12-13T09:04:24.932Z,23.46
2018-12-13T09:05:24.973Z,23.52
2018-12-13T09:06:25.058Z,23.62
2018-12-13T09:07:25.086Z,23.70
2018-12-13T09:08:25.129Z,23.75
2018-12-13T09:09:25.171Z,23.87
2018-12-13T09:10:25.247Z,24.00
2018-12-13T09:11:25.266Z,24.01
2018-12-13T09:12:25.319Z,24.12
2018-12-13T09:13:25.357Z,24.26
2018-12-13T09:14:25.440Z,24.31
2018-12-13T09:15:25.712Z,24.47
2018-12-13T09:16:31.319Z,24.50
2018-12-13T09:17:25.561Z,24.63
2018-12-13T09:18:25.610Z,24.76
2018-12-13T09:19:25.644Z,24.87
2018-12-13T09:20:25.711Z,24.95
2018-12-13T09:21:25.754Z,25.00
2018-12-13T09:22:25.831Z,24.98
2018-12-13T09:23:25.828Z,25.06
2018-12-13T09:24:25.894Z,25.15
2018-12-13T09:25:25.941Z,25.19
2018-12-13T09:26:26.005Z,25.10
2018-12-13T09:27:26.023Z,25.16
2018-12-13T09:28:26.090Z,25.25
2018-12-13T09:29:26.132Z,25.34
2018-12-13T09:30:26.183Z,25.38
2018-12-13T09:31:26.233Z,25.43
2018-12-13T09:32:26.328Z,25.43
2018-12-13T09:33:26.333Z,25.49
2018-12-13T09:34:26.373Z,25.59
2018-12-13T09:35:26.435Z,25.59
2018-12-13T09:36:26.471Z,25.67
2018-12-13T09:37:26.510Z,25.77
2018-12-13T09:38:27.350Z,25.80
2018-12-13T09:39:26.648Z,25.89
2018-12-13T09:40:26.682Z,25.86
2018-12-13T09:41:26.720Z,25.89
2018-12-13T09:42:26.771Z,25.99
2018-12-13T09:43:26.831Z,26.08
2018-12-13T09:44:26.926Z,26.15
2018-12-13T09:45:26.922Z,26.24
2018-12-13T09:46:26.980Z,26.28
2018-12-13T09:47:27.015Z,26.20
2018-12-13T09:48:27.086Z,26.15
2018-12-13T09:49:27.175Z,26.31
2018-12-13T09:50:27.171Z,26.44
2018-12-13T09:51:27.220Z,26.42
2018-12-13T09:52:27.283Z,26.47
2018-12-13T09:53:27.369Z,26.58
2018-12-13T09:54:27.369Z,26.58
2018-12-13T09:55:27.417Z,26.64
2018-12-13T09:56:27.479Z,26.68
2018-12-13T09:57:27.563Z,26.79
2018-12-13T09:58:27.588Z,26.77
2018-12-13T09:59:27.619Z,26.86
2018-12-13T10:00:27.684Z,26.87
2018-12-13T10:01:27.714Z,26.84
2018-12-13T10:02:27.760Z,27.06
2018-12-13T10:03:27.827Z,27.13
2018-12-13T10:04:27.881Z,27.26
2018-12-13T10:05:27.947Z,27.16
2018-12-13T10:06:27.966Z,27.42
2018-12-13T10:07:28.034Z,27.42
2018-12-13T10:08:28.342Z,27.43
2018-12-13T10:09:28.141Z,27.76
2018-12-13T10:10:28.172Z,28.36
2018-12-13T10:11:28.244Z,29.23
2018-12-13T10:12:28.286Z,29.90
2018-12-13T10:13:28.347Z,30.64
2018-12-13T10:14:28.411Z,31.18
2018-12-13T10:15:32.052Z,31.80
2018-12-13T10:16:28.512Z,32.24
2018-12-13T10:17:28.537Z,32.69
2018-12-13T10:18:28.665Z,33.19
2018-12-13T10:19:28.687Z,33.67
2018-12-13T10:20:28.734Z,33.76
2018-12-13T10:21:28.792Z,34.20
2018-12-13T10:22:28.824Z,34.64
2018-12-13T10:23:28.918Z,35.18
2018-12-13T10:24:28.925Z,35.32
2018-12-13T10:25:28.987Z,35.58
2018-12-13T10:26:29.050Z,35.18
2018-12-13T10:27:29.093Z,35.35
2018-12-13T10:28:29.196Z,35.81
2018-12-13T10:29:29.245Z,36.17
2018-12-13T10:30:29.298Z,35.73
2018-12-13T10:31:29.336Z,35.40
2018-12-13T10:32:29.404Z,35.70
2018-12-13T10:33:29.456Z,35.69
2018-12-13T10:34:29.511Z,35.73
2018-12-13T10:35:29.570Z,35.89
2018-12-13T10:36:29.628Z,35.69
2018-12-13T10:37:29.693Z,36.03
2018-12-13T10:38:29.741Z,36.33
2018-12-13T10:39:29.793Z,36.35
2018-12-13T10:40:29.856Z,36.79
2018-12-13T10:41:29.910Z,36.52
2018-12-13T10:42:29.955Z,35.89
2018-12-13T10:43:30.039Z,35.28
2018-12-13T10:44:30.080Z,35.17
2018-12-13T10:45:30.166Z,35.40
2018-12-13T10:46:30.195Z,35.86
2018-12-13T10:47:30.252Z,35.82
2018-12-13T10:48:30.310Z,36.07
2018-12-13T10:49:30.388Z,36.82
2018-12-13T10:50:30.444Z,36.80
2018-12-13T10:51:30.493Z,36.98
2018-12-13T10:52:30.568Z,36.91
2018-12-13T10:53:30.632Z,36.63
2018-12-13T10:54:30.694Z,36.30
2018-12-13T10:55:30.752Z,36.07
2018-12-13T10:56:30.795Z,35.86
2018-12-13T10:57:30.868Z,36.08
2018-12-13T10:58:30.935Z,36.33
2018-12-13T10:59:30.983Z,36.42
2018-12-13T11:00:31.109Z,36.73
2018-12-13T11:01:31.097Z,36.82
2018-12-13T11:02:31.140Z,36.75
2018-12-13T11:03:31.195Z,36.42
2018-12-13T11:04:31.289Z,36.48
2018-12-13T11:05:31.347Z,36.67
2018-12-13T11:06:31.385Z,37.19
2018-12-13T11:07:31.445Z,37.43
2018-12-13T11:08:31.542Z,37.41
2018-12-13T11:09:31.596Z,36.52
2018-12-13T11:10:31.640Z,36.30
2018-12-13T11:11:31.741Z,36.98
2018-12-13T11:12:31.743Z,37.42
2018-12-13T11:13:31.829Z,36.99
2018-12-13T11:14:31.889Z,36.60
2018-12-13T11:15:31.986Z,36.63
2018-12-13T11:16:32.025Z,36.79
2018-12-13T11:17:32.057Z,37.02
2018-12-13T11:18:32.125Z,37.33
2018-12-13T11:19:32.227Z,37.56
2018-12-13T11:20:32.242Z,37.24
2018-12-13T11:21:32.322Z,37.39
2018-12-13T11:22:32.608Z,37.29
2018-12-13T11:23:32.428Z,37.47
2018-12-13T11:24:32.497Z,36.92
2018-12-13T11:25:32.543Z,36.73
2018-12-13T11:26:32.652Z,36.61
2018-12-13T11:27:32.678Z,36.06
2018-12-13T11:28:33.026Z,36.38
2018-12-13T11:29:32.810Z,36.46
2018-12-13T11:30:32.844Z,36.64
2018-12-13T11:31:32.916Z,36.17
2018-12-13T11:32:32.983Z,36.03
2018-12-13T11:33:33.018Z,36.26
2018-12-13T11:34:33.128Z,36.56
2018-12-13T11:35:33.176Z,36.11
2018-12-13T11:36:33.228Z,35.33
2018-12-13T11:37:33.295Z,35.39
2018-12-13T11:38:33.318Z,36.06
2018-12-13T11:39:33.393Z,36.87
2018-12-13T11:40:33.457Z,37.20
2018-12-13T11:41:33.556Z,37.95
2018-12-13T11:42:33.576Z,38.55
2018-12-13T11:43:33.655Z,38.61
2018-12-13T11:44:33.710Z,38.52
2018-12-13T11:45:33.748Z,37.99
2018-12-13T11:46:33.812Z,37.96
2018-12-13T11:47:33.889Z,38.24
2018-12-13T11:48:33.967Z,37.88
2018-12-13T11:49:34.022Z,37.78
2018-12-13T11:50:34.064Z,37.64
2018-12-13T11:51:34.135Z,37.39
2018-12-13T11:52:34.218Z,37.50
2018-12-13T11:53:34.261Z,37.13
2018-12-13T11:54:34.348Z,37.16
2018-12-13T11:55:34.358Z,37.41
2018-12-13T11:56:34.455Z,37.73
2018-12-13T11:57:34.503Z,37.55
2018-12-13T11:58:34.583Z,37.31
2018-12-13T11:59:34.624Z,37.36
2018-12-13T12:00:34.684Z,37.59
2018-12-13T12:01:34.755Z,37.74
2018-12-13T12:02:34.816Z,38.34
2018-12-13T12:03:34.867Z,37.73
2018-12-13T12:04:34.945Z,37.14
2018-12-13T12:05:34.992Z,37.35
2018-12-13T12:06:35.067Z,37.99
2018-12-13T12:07:35.114Z,38.05
2018-12-13T12:08:35.226Z,37.48
2018-12-13T12:09:35.258Z,37.29
2018-12-13T12:10:35.290Z,37.70
2018-12-13T12:11:35.366Z,38.10
2018-12-13T12:12:35.432Z,38.07
2018-12-13T12:13:35.489Z,38.48
2018-12-13T12:14:35.527Z,38.45
2018-12-13T12:15:35.663Z,38.14
2018-12-13T12:16:35.723Z,38.71
2018-12-13T12:17:35.752Z,38.64
2018-12-13T12:18:35.802Z,38.17
2018-12-13T12:19:35.919Z,38.04
2018-12-13T12:20:35.916Z,38.57
2018-12-13T12:21:35.982Z,39.18
2018-12-13T12:22:36.054Z,39.33
2018-12-13T12:23:36.110Z,39.62
2018-12-13T12:24:36.178Z,39.24
2018-12-13T12:25:36.231Z,39.03
2018-12-13T12:26:36.345Z,38.46
2018-12-13T12:27:36.374Z,38.80
2018-12-13T12:28:36.418Z,39.27
2018-12-13T12:29:36.487Z,39.65
2018-12-13T12:30:36.558Z,39.99
2018-12-13T12:31:36.608Z,39.58
2018-12-13T12:32:36.679Z,39.42
2018-12-13T12:33:37.046Z,39.08
2018-12-13T12:34:36.785Z,38.61
2018-12-13T12:35:36.867Z,39.28
2018-12-13T12:36:36.947Z,39.59
2018-12-13T12:37:37.001Z,39.89
2018-12-13T12:38:37.074Z,40.21
2018-12-13T12:39:37.155Z,40.45
2018-12-13T12:40:37.189Z,40.40
2018-12-13T12:41:37.235Z,40.36
2018-12-13T12:42:37.362Z,40.12
2018-12-13T12:43:37.380Z,40.47
2018-12-13T12:44:37.456Z,40.50
2018-12-13T12:45:37.504Z,40.68
2018-12-13T12:46:37.579Z,40.43
2018-12-13T12:47:37.626Z,40.49
2018-12-13T12:48:37.699Z,40.46
2018-12-13T12:49:37.770Z,40.66
2018-12-13T12:50:37.827Z,40.96
2018-12-13T12:51:37.900Z,40.84
2018-12-13T12:52:37.969Z,41.00
2018-12-13T12:53:38.012Z,41.43